Gloucester, Virginia
Current Conditions -  °F | °C
As of 5:15 PM on Saturday 20 Dec 2014 (Local Time) from KW75 Reporting Station
Overcast Overcast  
Wind Chill: 32°   Ceiling: 11000
Heat Index: 36°   Visibility: 10mi
Dew Point: 26°   Wind: 5mph
Humidity: 67%   Direction: 280°W
Pressure: 30.28"   Gusts: NA
Location:  37.41°N, 76.52°W
Report Text: KW75 202215Z AUTO 28004KT 10SM OVC110 02/M04 A3028 RMK AO1 T00201036
Loading
Personal Weather Stations






























Interactive Weather Map New forecast layout! Learn more

10-Day Weather Forecast

Advertisements
Track Severe Weather on mobile